createdAt,value
2023-02-06T00:00:23.590Z,65.21
2023-02-06T00:03:15.912Z,65.03
2023-02-06T00:05:56.947Z,65.27
2023-02-06T00:08:29.877Z,65.27
2023-02-06T00:11:07.505Z,64.95
2023-02-06T00:13:40.312Z,65.22
2023-02-06T00:16:20.051Z,65.34
2023-02-06T00:18:53.117Z,65.51
2023-02-06T00:21:27.258Z,65.70
2023-02-06T00:24:02.352Z,65.78
2023-02-06T00:26:35.380Z,66.00
2023-02-06T00:29:08.226Z,66.21
2023-02-06T00:31:41.142Z,66.18
2023-02-06T00:34:13.515Z,66.84
2023-02-06T00:36:45.959Z,67.59
2023-02-06T00:39:19.564Z,68.07
2023-02-06T00:41:51.936Z,67.84
2023-02-06T00:44:24.632Z,66.97
2023-02-06T00:46:58.968Z,66.74
2023-02-06T00:49:31.220Z,66.52
2023-02-06T00:52:03.607Z,66.19
2023-02-06T00:54:35.863Z,66.09
2023-02-06T00:57:08.063Z,65.90
2023-02-06T00:59:40.323Z,65.76
2023-02-06T01:02:12.554Z,66.02
2023-02-06T01:04:44.942Z,65.98
2023-02-06T01:07:17.324Z,66.21
2023-02-06T01:09:49.784Z,66.29
2023-02-06T01:12:22.467Z,66.23
2023-02-06T01:14:54.936Z,66.96
2023-02-06T01:17:27.185Z,66.72
2023-02-06T01:19:59.687Z,66.91
2023-02-06T01:22:34.135Z,67.24
2023-02-06T01:25:07.710Z,66.86
2023-02-06T01:27:41.009Z,66.41
2023-02-06T01:30:15.328Z,66.37
2023-02-06T01:32:47.734Z,66.39
2023-02-06T01:35:21.404Z,66.83
2023-02-06T01:37:53.980Z,67.57
2023-02-06T01:40:26.567Z,67.05
2023-02-06T01:42:58.854Z,67.13
2023-02-06T01:45:41.378Z,67.77
2023-02-06T01:48:19.550Z,67.91
2023-02-06T01:50:55.293Z,67.72
2023-02-06T01:53:28.798Z,67.64
2023-02-06T01:56:04.647Z,67.72
2023-02-06T01:58:40.095Z,67.79
2023-02-06T02:01:13.086Z,67.71
2023-02-06T02:03:46.817Z,67.80
2023-02-06T02:06:24.008Z,68.28
2023-02-06T02:08:58.464Z,68.78
2023-02-06T02:11:35.198Z,69.16
2023-02-06T02:14:11.577Z,68.72
2023-02-06T02:16:54.463Z,68.25
2023-02-06T02:20:07.719Z,67.69
2023-02-06T02:22:56.993Z,67.46
2023-02-06T02:26:15.730Z,67.60
2023-02-06T02:29:26.000Z,67.59
2023-02-06T02:32:28.792Z,67.86
2023-02-06T02:35:25.525Z,67.53
2023-02-06T02:38:07.424Z,67.20
2023-02-06T02:40:48.846Z,67.44
2023-02-06T02:43:36.151Z,67.49
2023-02-06T02:46:15.458Z,67.69
2023-02-06T02:48:52.132Z,67.59
2023-02-06T02:51:24.864Z,67.35
2023-02-06T02:53:58.934Z,67.23
2023-02-06T02:56:33.653Z,66.97
2023-02-06T02:59:10.043Z,66.89
2023-02-06T03:01:46.908Z,67.17
2023-02-06T03:04:24.182Z,67.11
2023-02-06T03:07:23.641Z,67.30
2023-02-06T03:10:05.078Z,68.00
2023-02-06T03:12:45.504Z,67.69
2023-02-06T03:15:26.413Z,67.96
2023-02-06T03:18:05.377Z,68.20
2023-02-06T03:20:42.119Z,68.29
2023-02-06T03:23:18.343Z,68.41
2023-02-06T03:25:52.164Z,68.20
2023-02-06T03:28:32.450Z,68.49
2023-02-06T03:31:07.229Z,68.46
2023-02-06T03:33:43.470Z,69.30
2023-02-06T03:36:17.461Z,69.50
2023-02-06T03:38:52.242Z,69.70
2023-02-06T03:41:28.859Z,69.97
2023-02-06T03:44:02.757Z,70.18
2023-02-06T03:46:36.059Z,69.70
2023-02-06T03:49:12.884Z,69.46
2023-02-06T03:51:48.839Z,69.41
2023-02-06T03:54:25.610Z,69.09
2023-02-06T03:57:01.070Z,68.77
2023-02-06T03:59:34.147Z,68.50
2023-02-06T04:02:07.263Z,68.32
2023-02-06T04:04:41.571Z,68.39
2023-02-06T04:07:18.166Z,68.40
2023-02-06T04:09:50.850Z,68.61
2023-02-06T04:12:23.705Z,68.35
2023-02-06T04:14:56.550Z,68.45
2023-02-06T04:17:46.385Z,68.59
2023-02-06T04:20:21.781Z,68.87
2023-02-06T04:22:54.687Z,68.89
2023-02-06T04:25:27.240Z,68.88
2023-02-06T04:27:59.437Z,69.17
2023-02-06T04:30:31.549Z,69.45
2023-02-06T04:33:03.769Z,69.66
2023-02-06T04:35:36.396Z,69.61
2023-02-06T04:38:08.628Z,69.65
2023-02-06T04:40:40.856Z,69.57
2023-02-06T04:43:13.564Z,70.15
2023-02-06T04:45:45.621Z,70.80
2023-02-06T04:48:17.715Z,71.02
2023-02-06T04:50:50.205Z,71.06
2023-02-06T04:53:22.572Z,70.67
2023-02-06T04:55:56.459Z,70.23
2023-02-06T04:58:28.925Z,69.92
2023-02-06T05:01:01.665Z,69.59
2023-02-06T05:03:34.455Z,69.43
2023-02-06T05:06:07.982Z,68.94
2023-02-06T05:08:40.394Z,68.83
2023-02-06T05:11:12.825Z,68.86
2023-02-06T05:13:45.617Z,68.76
2023-02-06T05:16:19.834Z,69.33
2023-02-06T05:18:56.737Z,68.85
2023-02-06T05:21:29.103Z,69.39
2023-02-06T05:24:01.238Z,69.50
2023-02-06T05:26:33.417Z,69.98
2023-02-06T05:29:05.604Z,70.53
2023-02-06T05:31:38.742Z,71.28
2023-02-06T05:34:12.437Z,71.10
2023-02-06T05:36:44.575Z,71.40
2023-02-06T05:39:16.732Z,71.82
2023-02-06T05:41:49.294Z,71.32
2023-02-06T05:44:21.465Z,71.48
2023-02-06T05:46:53.635Z,71.65
2023-02-06T05:49:25.905Z,71.80
2023-02-06T05:51:58.301Z,71.59
2023-02-06T05:54:30.545Z,71.43
2023-02-06T05:57:02.948Z,71.39
2023-02-06T05:59:35.310Z,70.86
2023-02-06T06:02:07.875Z,70.54
2023-02-06T06:04:40.303Z,70.48
2023-02-06T06:07:13.741Z,70.31
2023-02-06T06:09:46.228Z,70.15
2023-02-06T06:12:18.727Z,69.92
2023-02-06T06:14:50.893Z,69.73
2023-02-06T06:17:24.271Z,69.72
2023-02-06T06:19:57.264Z,69.56
2023-02-06T06:22:30.041Z,69.24
2023-02-06T06:25:02.503Z,69.07
2023-02-06T06:27:34.893Z,69.08
2023-02-06T06:30:09.004Z,69.10
2023-02-06T06:32:41.682Z,68.92
2023-02-06T06:35:14.149Z,69.19
2023-02-06T06:37:46.637Z,69.21
2023-02-06T06:40:19.232Z,69.08
2023-02-06T06:42:51.537Z,69.06
2023-02-06T06:45:24.232Z,69.16
2023-02-06T06:47:56.354Z,69.21
2023-02-06T06:50:28.529Z,69.21
2023-02-06T06:53:00.662Z,69.07
2023-02-06T06:55:32.910Z,68.91
2023-02-06T06:58:05.372Z,69.08
2023-02-06T07:00:38.721Z,69.16
2023-02-06T07:03:11.884Z,68.47
2023-02-06T07:05:52.975Z,68.36
2023-02-06T07:08:30.084Z,68.50
2023-02-06T07:11:03.592Z,68.69
2023-02-06T07:13:35.834Z,68.64
2023-02-06T07:16:09.700Z,68.90
2023-02-06T07:18:44.531Z,68.84
2023-02-06T07:21:20.016Z,68.50
2023-02-06T07:23:52.249Z,68.39
2023-02-06T07:26:24.873Z,67.95
2023-02-06T07:28:57.749Z,68.50
2023-02-06T07:31:31.025Z,68.59
2023-02-06T07:34:04.214Z,67.58
2023-02-06T07:36:37.534Z,67.91
2023-02-06T07:39:09.810Z,68.15
2023-02-06T07:41:43.016Z,68.34
2023-02-06T07:44:18.655Z,68.61
2023-02-06T07:46:52.912Z,68.25
2023-02-06T07:49:25.507Z,67.18
2023-02-06T07:51:58.040Z,68.00
2023-02-06T07:54:31.417Z,68.58
2023-02-06T07:57:03.794Z,68.35
2023-02-06T07:59:36.204Z,67.82
2023-02-06T08:02:10.808Z,67.19
2023-02-06T08:04:44.186Z,67.18
2023-02-06T08:07:23.287Z,66.69
2023-02-06T08:09:56.205Z,66.87
2023-02-06T08:12:30.443Z,66.42
2023-02-06T08:15:02.789Z,67.39
2023-02-06T08:17:34.996Z,67.37
2023-02-06T08:20:07.673Z,66.28
2023-02-06T08:22:39.852Z,65.99
2023-02-06T08:25:12.312Z,65.33
2023-02-06T08:27:44.661Z,64.65
2023-02-06T08:30:17.677Z,65.32
2023-02-06T08:32:50.571Z,66.38
2023-02-06T08:35:23.692Z,66.36
2023-02-06T08:37:56.006Z,65.83
2023-02-06T08:40:28.210Z,65.76
2023-02-06T08:43:00.894Z,65.65
2023-02-06T08:45:33.690Z,66.17
2023-02-06T08:48:07.871Z,65.78
2023-02-06T08:50:40.291Z,65.70
2023-02-06T08:53:12.817Z,65.40
2023-02-06T08:55:45.192Z,65.02
2023-02-06T08:58:24.117Z,64.33
2023-02-06T09:00:58.427Z,64.45
2023-02-06T09:03:31.650Z,63.52
2023-02-06T09:06:10.119Z,63.21
2023-02-06T09:08:43.773Z,60.78
2023-02-06T09:11:18.709Z,62.46
2023-02-06T09:13:51.758Z,61.93
2023-02-06T09:16:25.198Z,57.46
2023-02-06T09:19:01.528Z,57.99
2023-02-06T09:21:39.072Z,61.48
2023-02-06T09:24:12.823Z,60.95
2023-02-06T09:26:59.016Z,58.63
2023-02-06T09:29:33.885Z,59.85
2023-02-06T09:32:06.363Z,59.84
2023-02-06T09:34:39.106Z,60.23
2023-02-06T09:37:11.388Z,60.60
2023-02-06T09:39:51.314Z,59.77
2023-02-06T09:42:32.801Z,59.55
2023-02-06T09:45:14.016Z,60.59
2023-02-06T09:47:51.736Z,57.45
2023-02-06T09:50:31.829Z,58.11
2023-02-06T09:53:18.385Z,58.19
2023-02-06T09:55:56.945Z,55.57
2023-02-06T09:58:43.077Z,58.32
2023-02-06T10:01:22.041Z,59.68
2023-02-06T10:04:14.102Z,59.46
2023-02-06T10:06:55.299Z,55.80
2023-02-06T10:09:36.815Z,56.73
2023-02-06T10:12:15.942Z,54.72
2023-02-06T10:14:52.174Z,56.78
2023-02-06T10:17:24.708Z,58.16
2023-02-06T10:20:01.631Z,56.23
2023-02-06T10:22:41.713Z,57.80
2023-02-06T10:25:26.206Z,58.01
2023-02-06T10:28:03.983Z,56.52
2023-02-06T10:30:50.851Z,59.47
2023-02-06T10:33:34.033Z,57.15
2023-02-06T10:36:12.652Z,57.91
2023-02-06T10:39:07.935Z,58.98
2023-02-06T10:41:50.246Z,57.57
2023-02-06T10:44:29.420Z,58.19
2023-02-06T10:47:02.142Z,58.92
2023-02-06T10:49:40.123Z,56.38
2023-02-06T10:52:23.779Z,59.28
2023-02-06T10:55:00.011Z,56.96
2023-02-06T10:57:33.912Z,58.15
2023-02-06T11:00:17.186Z,56.07
2023-02-06T11:03:06.879Z,57.20
2023-02-06T11:05:41.623Z,58.61
2023-02-06T11:08:21.678Z,58.77
2023-02-06T11:10:54.171Z,56.93
2023-02-06T11:13:30.871Z,58.04
2023-02-06T11:16:08.380Z,56.33
2023-02-06T11:18:45.088Z,54.74
2023-02-06T11:21:38.544Z,57.18
2023-02-06T11:24:15.566Z,56.48
2023-02-06T11:26:51.741Z,54.22
2023-02-06T11:29:33.038Z,55.94
2023-02-06T11:32:08.553Z,57.78
2023-02-06T11:34:52.040Z,58.47
2023-02-06T11:37:37.994Z,56.12
2023-02-06T11:40:29.480Z,57.36
2023-02-06T11:43:19.440Z,55.58
2023-02-06T11:46:07.033Z,55.48
2023-02-06T11:48:41.780Z,56.86
2023-02-06T11:51:15.076Z,56.92
2023-02-06T11:54:01.971Z,55.01
2023-02-06T11:56:36.222Z,54.19
2023-02-06T11:59:23.551Z,54.69
2023-02-06T12:01:57.116Z,55.89
2023-02-06T12:04:35.934Z,55.89
2023-02-06T12:07:15.628Z,55.69
2023-02-06T12:09:48.330Z,55.97
2023-02-06T12:12:30.245Z,56.00
2023-02-06T12:15:36.148Z,52.42
2023-02-06T12:18:23.461Z,54.45
2023-02-06T12:21:01.847Z,53.65
2023-02-06T12:23:40.615Z,54.80
2023-02-06T12:26:17.511Z,54.42
2023-02-06T12:28:59.108Z,53.78
2023-02-06T12:31:38.285Z,54.38
2023-02-06T12:34:18.598Z,54.78
2023-02-06T12:37:09.319Z,54.20
2023-02-06T12:39:43.243Z,53.98
2023-02-06T12:42:36.367Z,53.64
2023-02-06T12:45:31.941Z,54.12
2023-02-06T12:48:13.980Z,53.66
2023-02-06T12:50:52.875Z,52.73
2023-02-06T12:53:30.762Z,54.44
2023-02-06T12:56:07.595Z,54.50
2023-02-06T12:59:04.833Z,54.81
2023-02-06T13:01:52.248Z,53.00
2023-02-06T13:04:27.619Z,53.62
2023-02-06T13:07:06.828Z,53.24
2023-02-06T13:09:42.871Z,53.85
2023-02-06T13:12:21.047Z,53.80
2023-02-06T13:14:56.830Z,53.87
2023-02-06T13:17:34.606Z,53.38
2023-02-06T13:20:14.562Z,53.14
2023-02-06T13:22:50.465Z,53.26
2023-02-06T13:25:54.834Z,53.02
2023-02-06T13:28:58.306Z,53.16
2023-02-06T13:31:34.628Z,52.65
2023-02-06T13:34:17.299Z,53.45
2023-02-06T13:36:55.325Z,53.10
2023-02-06T13:39:34.951Z,51.99
2023-02-06T13:42:43.048Z,53.52
2023-02-06T13:45:23.643Z,52.73
2023-02-06T13:48:37.143Z,53.50
2023-02-06T13:51:24.913Z,53.08
2023-02-06T13:54:42.232Z,50.84
2023-02-06T13:57:29.563Z,51.27
2023-02-06T14:00:12.066Z,47.37
2023-02-06T14:02:48.924Z,45.92
2023-02-06T14:05:25.091Z,44.03
2023-02-06T14:08:07.494Z,40.40
2023-02-06T14:11:06.352Z,33.99
2023-02-06T14:14:01.681Z,35.85
2023-02-06T14:16:49.638Z,35.67
2023-02-06T14:19:33.564Z,34.45
2023-02-06T14:22:19.196Z,30.83
2023-02-06T14:25:15.146Z,31.14
2023-02-06T14:28:01.961Z,31.38
2023-02-06T14:30:44.273Z,30.91
2023-02-06T14:33:44.226Z,30.59
2023-02-06T14:36:32.565Z,31.91
2023-02-06T14:39:32.306Z,33.72
2023-02-06T14:42:13.519Z,34.98
2023-02-06T14:44:50.700Z,37.39
2023-02-06T14:47:27.344Z,37.71
2023-02-06T14:50:01.898Z,38.91
2023-02-06T14:52:35.827Z,40.93
2023-02-06T14:55:36.764Z,41.04
2023-02-06T14:58:20.125Z,42.37
2023-02-06T15:00:52.704Z,42.79
2023-02-06T15:03:26.943Z,42.67
2023-02-06T15:06:22.158Z,43.00
2023-02-06T15:08:55.219Z,42.96
2023-02-06T15:11:32.887Z,43.61
2023-02-06T15:14:09.194Z,44.05
2023-02-06T15:16:51.094Z,44.55
2023-02-06T15:19:25.636Z,44.79
2023-02-06T15:22:02.336Z,45.08
2023-02-06T15:24:51.297Z,45.51
2023-02-06T15:27:30.041Z,45.46
2023-02-06T15:30:04.807Z,45.87
2023-02-06T15:32:45.180Z,46.39
2023-02-06T15:35:25.315Z,46.85
2023-02-06T15:38:03.893Z,47.37
2023-02-06T15:40:42.389Z,47.68
2023-02-06T15:43:17.354Z,48.15
2023-02-06T15:45:51.784Z,49.03
2023-02-06T15:48:29.442Z,49.06
2023-02-06T15:51:03.887Z,49.74
2023-02-06T15:53:39.841Z,49.95
2023-02-06T15:56:23.151Z,50.25
2023-02-06T15:59:01.579Z,49.95
2023-02-06T16:01:37.363Z,50.24
2023-02-06T16:04:14.633Z,50.27
2023-02-06T16:06:48.406Z,50.81
2023-02-06T16:09:23.778Z,50.94
2023-02-06T16:11:58.308Z,51.24
2023-02-06T16:14:36.616Z,51.23
2023-02-06T16:17:26.702Z,51.45
2023-02-06T16:20:03.091Z,52.82
2023-02-06T16:22:34.818Z,53.17
2023-02-06T16:25:22.885Z,53.39
2023-02-06T16:27:55.737Z,54.21
2023-02-06T16:30:30.986Z,53.25
2023-02-06T16:33:20.211Z,52.88
2023-02-06T16:35:53.049Z,53.84
2023-02-06T16:38:25.368Z,52.78
2023-02-06T16:40:58.068Z,53.45
2023-02-06T16:43:33.087Z,53.24
2023-02-06T16:46:05.471Z,54.77
2023-02-06T16:48:38.470Z,54.35
2023-02-06T16:51:13.677Z,54.36
2023-02-06T16:53:48.363Z,54.78
2023-02-06T16:56:22.720Z,54.53
2023-02-06T16:58:54.955Z,54.77
2023-02-06T17:01:29.851Z,56.04
2023-02-06T17:04:02.197Z,55.51
2023-02-06T17:06:36.975Z,55.52
2023-02-06T17:09:14.454Z,56.03
2023-02-06T17:11:46.728Z,56.07
2023-02-06T17:14:19.067Z,55.98
2023-02-06T17:16:51.643Z,56.55
2023-02-06T17:19:26.264Z,56.84
2023-02-06T17:21:58.787Z,56.80
2023-02-06T17:24:31.150Z,56.96
2023-02-06T17:27:03.737Z,57.86
2023-02-06T17:29:36.338Z,58.06
2023-02-06T17:32:09.447Z,58.19
2023-02-06T17:34:41.668Z,58.99
2023-02-06T17:37:20.975Z,59.52
2023-02-06T17:39:54.393Z,59.40
2023-02-06T17:42:26.823Z,58.97
2023-02-06T17:44:59.194Z,60.63
2023-02-06T17:47:31.642Z,59.75
2023-02-06T17:50:04.078Z,59.21
2023-02-06T17:52:36.372Z,59.22
2023-02-06T17:55:10.474Z,58.97
2023-02-06T17:57:43.046Z,58.63
2023-02-06T18:00:18.660Z,58.76
2023-02-06T18:02:51.848Z,59.13
2023-02-06T18:05:25.064Z,58.93
2023-02-06T18:07:57.067Z,58.91
2023-02-06T18:10:29.340Z,59.43
2023-02-06T18:13:01.562Z,59.15
2023-02-06T18:15:33.684Z,59.97
2023-02-06T18:18:06.005Z,59.89
2023-02-06T18:20:40.491Z,60.49
2023-02-06T18:23:14.681Z,60.51
2023-02-06T18:25:47.234Z,60.94
2023-02-06T18:28:20.160Z,61.34
2023-02-06T18:30:52.454Z,60.26
2023-02-06T18:33:24.809Z,62.44
2023-02-06T18:35:57.541Z,60.52
2023-02-06T18:38:29.813Z,59.80
2023-02-06T18:41:05.914Z,60.64
2023-02-06T18:43:38.201Z,60.86
2023-02-06T18:46:11.289Z,60.22
2023-02-06T18:48:44.196Z,60.56
2023-02-06T18:51:16.278Z,61.17
2023-02-06T18:53:48.554Z,60.23
2023-02-06T18:56:21.171Z,60.28
2023-02-06T18:58:53.319Z,59.65
2023-02-06T19:01:27.325Z,59.78
2023-02-06T19:04:00.857Z,60.71
2023-02-06T19:06:36.776Z,61.74
2023-02-06T19:09:09.933Z,62.08
2023-02-06T19:11:43.568Z,62.40
2023-02-06T19:14:18.446Z,61.65
2023-02-06T19:16:52.974Z,61.14
2023-02-06T19:19:24.962Z,61.26
2023-02-06T19:21:58.073Z,61.55
2023-02-06T19:24:31.122Z,61.57
2023-02-06T19:27:03.261Z,61.60
2023-02-06T19:29:36.698Z,61.46
2023-02-06T19:32:10.282Z,62.78
2023-02-06T19:34:45.335Z,63.64
2023-02-06T19:37:17.510Z,62.77
2023-02-06T19:39:50.014Z,62.24
2023-02-06T19:42:22.315Z,62.47
2023-02-06T19:44:55.936Z,61.98
2023-02-06T19:47:28.087Z,61.78
2023-02-06T19:50:00.323Z,61.83
2023-02-06T19:52:32.974Z,62.90
2023-02-06T19:55:05.375Z,62.46
2023-02-06T19:57:39.704Z,61.72
2023-02-06T20:00:14.273Z,62.40
2023-02-06T20:02:47.434Z,62.98
2023-02-06T20:05:26.080Z,62.70
2023-02-06T20:07:58.143Z,62.42
2023-02-06T20:10:30.549Z,62.74
2023-02-06T20:13:03.086Z,62.80
2023-02-06T20:15:40.460Z,62.75
2023-02-06T20:18:12.839Z,63.51
2023-02-06T20:20:47.249Z,63.45
2023-02-06T20:23:19.601Z,62.44
2023-02-06T20:25:52.000Z,63.07
2023-02-06T20:28:24.784Z,64.16
2023-02-06T20:30:57.390Z,64.66
2023-02-06T20:33:29.863Z,64.36
2023-02-06T20:36:08.164Z,63.95
2023-02-06T20:38:40.488Z,63.59
2023-02-06T20:41:13.081Z,63.67
2023-02-06T20:43:47.816Z,63.42
2023-02-06T20:46:21.783Z,64.15
2023-02-06T20:48:58.956Z,63.82
2023-02-06T20:51:32.143Z,63.94
2023-02-06T20:54:04.511Z,63.79
2023-02-06T20:56:36.818Z,65.01
2023-02-06T20:59:09.791Z,65.91
2023-02-06T21:01:42.737Z,65.12
2023-02-06T21:04:16.432Z,64.51
2023-02-06T21:06:50.228Z,64.53
2023-02-06T21:09:22.554Z,64.61
2023-02-06T21:11:54.911Z,64.82
2023-02-06T21:14:30.071Z,65.09
2023-02-06T21:17:02.394Z,65.18
2023-02-06T21:19:34.477Z,65.28
2023-02-06T21:22:06.834Z,65.74
2023-02-06T21:24:39.096Z,65.49
2023-02-06T21:27:11.180Z,65.57
2023-02-06T21:29:43.276Z,64.87
2023-02-06T21:32:15.798Z,64.81
2023-02-06T21:34:48.500Z,65.25
2023-02-06T21:37:22.803Z,65.90
2023-02-06T21:39:54.885Z,66.50
2023-02-06T21:42:27.648Z,66.68
2023-02-06T21:44:59.823Z,66.78
2023-02-06T21:47:32.048Z,66.88
2023-02-06T21:50:04.369Z,66.81
2023-02-06T21:52:38.891Z,66.75
2023-02-06T21:55:11.797Z,66.38
2023-02-06T21:57:43.987Z,66.23
2023-02-06T22:00:18.949Z,65.91
2023-02-06T22:02:51.286Z,65.49
2023-02-06T22:05:24.655Z,65.30
2023-02-06T22:07:58.520Z,65.44
2023-02-06T22:10:30.841Z,65.21
2023-02-06T22:13:03.012Z,64.83
2023-02-06T22:15:35.827Z,64.89
2023-02-06T22:18:10.410Z,64.86
2023-02-06T22:20:42.600Z,65.36
2023-02-06T22:23:14.808Z,66.14
2023-02-06T22:25:50.467Z,66.54
2023-02-06T22:28:22.598Z,66.12
2023-02-06T22:30:54.791Z,66.08
2023-02-06T22:33:27.003Z,66.11
2023-02-06T22:35:59.345Z,66.17
2023-02-06T22:38:31.467Z,66.47
2023-02-06T22:41:06.281Z,66.65
2023-02-06T22:43:39.811Z,66.31
2023-02-06T22:46:22.346Z,67.00
2023-02-06T22:48:55.416Z,66.80
2023-02-06T22:51:28.055Z,66.53
2023-02-06T22:54:00.725Z,67.11
2023-02-06T22:56:36.985Z,67.80
2023-02-06T22:59:11.888Z,68.34
2023-02-06T23:01:46.308Z,68.62
2023-02-06T23:04:20.532Z,68.69
2023-02-06T23:06:53.666Z,68.74
2023-02-06T23:09:31.056Z,69.03
2023-02-06T23:12:04.277Z,69.34
2023-02-06T23:14:36.664Z,69.36
2023-02-06T23:17:08.821Z,69.17
2023-02-06T23:19:41.279Z,69.33
2023-02-06T23:22:13.470Z,69.37
2023-02-06T23:24:45.664Z,69.01
2023-02-06T23:27:19.817Z,68.61
2023-02-06T23:29:51.986Z,69.01
2023-02-06T23:32:24.147Z,69.55
2023-02-06T23:34:59.705Z,68.76
2023-02-06T23:37:32.023Z,68.72
2023-02-06T23:40:05.570Z,68.79
2023-02-06T23:42:38.766Z,68.61
2023-02-06T23:45:11.814Z,68.18
2023-02-06T23:47:44.012Z,67.94
2023-02-06T23:50:16.643Z,67.90
2023-02-06T23:52:48.786Z,68.02
2023-02-06T23:55:25.053Z,68.34
2023-02-06T23:57:57.775Z,68.27
